METAR Data
IDs: Format: Raw Decoded Include TAF

Data at: 1129 UTC 28 Sep 2021

VTBS 281100Z 31004KT 9999 VCSH FEW020CB SCT040 30/22 Q1006 NOSIG